sensor_id;sensor_type;location;lat;lon;timestamp;temperature;humidity
45207;DHT22;30950;53.086;21.576;2022-11-15T00:01:51;7.50;99.90
45207;DHT22;30950;53.086;21.576;2022-11-15T00:04:37;7.50;99.90
45207;DHT22;30950;53.086;21.576;2022-11-15T00:07:23;7.40;99.90
45207;DHT22;30950;53.086;21.576;2022-11-15T00:10:29;7.40;99.90
45207;DHT22;30950;53.086;21.576;2022-11-15T00:13:15;7.30;99.90
45207;DHT22;30950;53.086;21.576;2022-11-15T00:16:01;7.30;99.90
45207;DHT22;30950;53.086;21.576;2022-11-15T00:18:48;7.30;99.90
45207;DHT22;30950;53.086;21.576;2022-11-15T00:21:35;7.20;99.90
45207;DHT22;30950;53.086;21.576;2022-11-15T00:24:21;7.30;99.90
45207;DHT22;30950;53.086;21.576;2022-11-15T00:27:07;7.20;99.90
45207;DHT22;30950;53.086;21.576;2022-11-15T00:29:53;7.20;99.90
45207;DHT22;30950;53.086;21.576;2022-11-15T00:32:38;7.20;99.90
45207;DHT22;30950;53.086;21.576;2022-11-15T00:35:24;7.20;99.90
45207;DHT22;30950;53.086;21.576;2022-11-15T00:38:10;7.20;99.90
45207;DHT22;30950;53.086;21.576;2022-11-15T00:40:56;7.10;99.90
45207;DHT22;30950;53.086;21.576;2022-11-15T00:43:41;7.10;99.90
45207;DHT22;30950;53.086;21.576;2022-11-15T00:46:29;7.00;99.90
45207;DHT22;30950;53.086;21.576;2022-11-15T00:49:15;7.10;99.90
45207;DHT22;30950;53.086;21.576;2022-11-15T00:52:01;7.00;99.90
45207;DHT22;30950;53.086;21.576;2022-11-15T00:54:46;7.00;99.90
45207;DHT22;30950;53.086;21.576;2022-11-15T00:57:33;7.00;99.90
45207;DHT22;30950;53.086;21.576;2022-11-15T01:00:19;7.00;99.90
45207;DHT22;30950;53.086;21.576;2022-11-15T01:03:04;7.00;99.90
45207;DHT22;30950;53.086;21.576;2022-11-15T01:05:50;6.90;99.90
45207;DHT22;30950;53.086;21.576;2022-11-15T01:08:37;6.90;99.90
45207;DHT22;30950;53.086;21.576;2022-11-15T01:11:23;6.90;99.90
45207;DHT22;30950;53.086;21.576;2022-11-15T01:14:09;6.90;99.90
45207;DHT22;30950;53.086;21.576;2022-11-15T01:16:54;6.80;99.90
45207;DHT22;30950;53.086;21.576;2022-11-15T01:19:40;6.80;99.90
45207;DHT22;30950;53.086;21.576;2022-11-15T01:22:26;6.80;99.90
45207;DHT22;30950;53.086;21.576;2022-11-15T01:25:12;6.80;99.90
45207;DHT22;30950;53.086;21.576;2022-11-15T01:27:58;6.80;99.90
45207;DHT22;30950;53.086;21.576;2022-11-15T01:30:44;6.80;99.90
45207;DHT22;30950;53.086;21.576;2022-11-15T01:33:30;6.80;99.90
45207;DHT22;30950;53.086;21.576;2022-11-15T01:36:20;6.80;99.90
45207;DHT22;30950;53.086;21.576;2022-11-15T01:39:09;6.80;99.90
45207;DHT22;30950;53.086;21.576;2022-11-15T01:41:55;6.80;99.90
45207;DHT22;30950;53.086;21.576;2022-11-15T01:44:47;6.80;99.90
45207;DHT22;30950;53.086;21.576;2022-11-15T01:47:37;6.80;99.90
45207;DHT22;30950;53.086;21.576;2022-11-15T01:50:29;6.80;99.90
45207;DHT22;30950;53.086;21.576;2022-11-15T01:53:19;6.80;99.90
45207;DHT22;30950;53.086;21.576;2022-11-15T01:56:08;6.70;99.90
45207;DHT22;30950;53.086;21.576;2022-11-15T01:58:57;6.70;99.90
45207;DHT22;30950;53.086;21.576;2022-11-15T02:01:43;6.70;99.90
45207;DHT22;30950;53.086;21.576;2022-11-15T02:04:32;6.70;99.90
45207;DHT22;30950;53.086;21.576;2022-11-15T02:07:20;6.60;99.90
45207;DHT22;30950;53.086;21.576;2022-11-15T02:10:18;6.60;99.90
45207;DHT22;30950;53.086;21.576;2022-11-15T02:13:04;6.60;99.90
45207;DHT22;30950;53.086;21.576;2022-11-15T02:25:24;6.60;99.90
45207;DHT22;30950;53.086;21.576;2022-11-15T02:28:40;6.60;99.90
45207;DHT22;30950;53.086;21.576;2022-11-15T02:43:35;6.60;99.90
45207;DHT22;30950;53.086;21.576;2022-11-15T02:46:54;6.60;99.90
45207;DHT22;30950;53.086;21.576;2022-11-15T02:50:05;6.60;99.90
45207;DHT22;30950;53.086;21.576;2022-11-15T02:52:55;6.50;99.90
45207;DHT22;30950;53.086;21.576;2022-11-15T02:55:44;6.50;99.90
45207;DHT22;30950;53.086;21.576;2022-11-15T02:59:00;6.50;99.90
45207;DHT22;30950;53.086;21.576;2022-11-15T03:04:58;6.40;99.90
45207;DHT22;30950;53.086;21.576;2022-11-15T03:11:03;6.40;99.90
45207;DHT22;30950;53.086;21.576;2022-11-15T03:13:59;6.40;99.90
45207;DHT22;30950;53.086;21.576;2022-11-15T03:20:14;6.40;99.90
45207;DHT22;30950;53.086;21.576;2022-11-15T03:23:05;6.40;99.90
45207;DHT22;30950;53.086;21.576;2022-11-15T03:25:53;6.40;99.90
45207;DHT22;30950;53.086;21.576;2022-11-15T03:31:39;6.40;99.90
45207;DHT22;30950;53.086;21.576;2022-11-15T03:41:13;6.30;99.90
45207;DHT22;30950;53.086;21.576;2022-11-15T03:50:18;6.30;99.90
45207;DHT22;30950;53.086;21.576;2022-11-15T03:53:05;6.30;99.90
45207;DHT22;30950;53.086;21.576;2022-11-15T03:55:50;6.30;99.90
45207;DHT22;30950;53.086;21.576;2022-11-15T03:58:36;6.30;99.90
45207;DHT22;30950;53.086;21.576;2022-11-15T04:01:22;6.30;99.90
45207;DHT22;30950;53.086;21.576;2022-11-15T04:04:09;6.30;99.90
45207;DHT22;30950;53.086;21.576;2022-11-15T04:06:55;6.30;99.90
45207;DHT22;30950;53.086;21.576;2022-11-15T04:09:41;6.30;99.90
45207;DHT22;30950;53.086;21.576;2022-11-15T04:12:46;6.30;99.90
45207;DHT22;30950;53.086;21.576;2022-11-15T04:15:33;6.20;99.90
45207;DHT22;30950;53.086;21.576;2022-11-15T04:18:19;6.20;99.90
45207;DHT22;30950;53.086;21.576;2022-11-15T04:21:05;6.20;99.90
45207;DHT22;30950;53.086;21.576;2022-11-15T04:24:10;6.20;99.90
45207;DHT22;30950;53.086;21.576;2022-11-15T04:26:59;6.20;99.90
45207;DHT22;30950;53.086;21.576;2022-11-15T04:29:44;6.20;99.90
45207;DHT22;30950;53.086;21.576;2022-11-15T04:32:31;6.10;99.90
45207;DHT22;30950;53.086;21.576;2022-11-15T04:35:16;6.20;99.90
45207;DHT22;30950;53.086;21.576;2022-11-15T04:38:04;6.20;99.90
45207;DHT22;30950;53.086;21.576;2022-11-15T04:40:51;6.10;99.90
45207;DHT22;30950;53.086;21.576;2022-11-15T04:43:37;6.10;99.90
45207;DHT22;30950;53.086;21.576;2022-11-15T04:46:23;6.10;99.90
45207;DHT22;30950;53.086;21.576;2022-11-15T04:49:09;6.10;99.90
45207;DHT22;30950;53.086;21.576;2022-11-15T04:51:55;6.10;99.90
45207;DHT22;30950;53.086;21.576;2022-11-15T04:54:41;6.10;99.90
45207;DHT22;30950;53.086;21.576;2022-11-15T04:57:27;6.10;99.90
45207;DHT22;30950;53.086;21.576;2022-11-15T05:00:15;6.10;99.90
45207;DHT22;30950;53.086;21.576;2022-11-15T05:03:02;6.20;99.90
45207;DHT22;30950;53.086;21.576;2022-11-15T05:06:06;6.10;99.90
45207;DHT22;30950;53.086;21.576;2022-11-15T05:08:52;6.10;99.90
45207;DHT22;30950;53.086;21.576;2022-11-15T05:11:38;6.20;99.90
45207;DHT22;30950;53.086;21.576;2022-11-15T05:14:24;6.20;99.90
45207;DHT22;30950;53.086;21.576;2022-11-15T05:17:10;6.20;99.90
45207;DHT22;30950;53.086;21.576;2022-11-15T05:19:56;6.20;99.90
45207;DHT22;30950;53.086;21.576;2022-11-15T05:22:42;6.20;99.90
45207;DHT22;30950;53.086;21.576;2022-11-15T05:25:28;6.20;99.90
45207;DHT22;30950;53.086;21.576;2022-11-15T05:28:14;6.20;99.90
45207;DHT22;30950;53.086;21.576;2022-11-15T05:31:08;6.20;99.90
45207;DHT22;30950;53.086;21.576;2022-11-15T05:33:55;6.20;99.90
45207;DHT22;30950;53.086;21.576;2022-11-15T05:36:42;6.30;99.90
45207;DHT22;30950;53.086;21.576;2022-11-15T05:39:30;6.20;99.90
45207;DHT22;30950;53.086;21.576;2022-11-15T05:42:16;6.20;99.90
45207;DHT22;30950;53.086;21.576;2022-11-15T05:45:04;6.20;99.90
45207;DHT22;30950;53.086;21.576;2022-11-15T05:47:51;6.20;99.90
45207;DHT22;30950;53.086;21.576;2022-11-15T05:50:40;6.20;99.90
45207;DHT22;30950;53.086;21.576;2022-11-15T05:53:28;6.20;99.90
45207;DHT22;30950;53.086;21.576;2022-11-15T05:56:15;6.20;99.90
45207;DHT22;30950;53.086;21.576;2022-11-15T05:59:01;6.20;99.90
45207;DHT22;30950;53.086;21.576;2022-11-15T06:01:48;6.10;99.90
45207;DHT22;30950;53.086;21.576;2022-11-15T06:04:35;6.10;99.90
45207;DHT22;30950;53.086;21.576;2022-11-15T06:07:21;6.10;99.90
45207;DHT22;30950;53.086;21.576;2022-11-15T06:10:07;6.20;99.90
45207;DHT22;30950;53.086;21.576;2022-11-15T06:15:44;6.20;99.90
45207;DHT22;30950;53.086;21.576;2022-11-15T06:18:32;6.20;99.90
45207;DHT22;30950;53.086;21.576;2022-11-15T06:21:19;6.20;99.90
45207;DHT22;30950;53.086;21.576;2022-11-15T06:24:05;6.20;99.90
45207;DHT22;30950;53.086;21.576;2022-11-15T06:26:52;6.20;99.90
45207;DHT22;30950;53.086;21.576;2022-11-15T06:29:38;6.20;99.90
45207;DHT22;30950;53.086;21.576;2022-11-15T06:32:24;6.20;99.90
45207;DHT22;30950;53.086;21.576;2022-11-15T06:35:10;6.20;99.90
45207;DHT22;30950;53.086;21.576;2022-11-15T06:37:56;6.20;99.90
45207;DHT22;30950;53.086;21.576;2022-11-15T06:40:47;6.20;99.90
45207;DHT22;30950;53.086;21.576;2022-11-15T06:43:33;6.20;99.90
45207;DHT22;30950;53.086;21.576;2022-11-15T06:46:20;6.30;99.90
45207;DHT22;30950;53.086;21.576;2022-11-15T06:49:05;6.30;99.90
45207;DHT22;30950;53.086;21.576;2022-11-15T06:51:54;6.30;99.90
45207;DHT22;30950;53.086;21.576;2022-11-15T06:54:40;6.30;99.90
45207;DHT22;30950;53.086;21.576;2022-11-15T06:57:26;6.30;99.90
45207;DHT22;30950;53.086;21.576;2022-11-15T07:00:12;6.30;99.90
45207;DHT22;30950;53.086;21.576;2022-11-15T07:03:02;6.30;99.90
45207;DHT22;30950;53.086;21.576;2022-11-15T07:05:54;6.30;99.90
45207;DHT22;30950;53.086;21.576;2022-11-15T07:08:41;6.40;99.90
45207;DHT22;30950;53.086;21.576;2022-11-15T07:11:27;6.40;99.90
45207;DHT22;30950;53.086;21.576;2022-11-15T07:14:13;6.40;99.90
45207;DHT22;30950;53.086;21.576;2022-11-15T07:16:59;6.40;99.90
45207;DHT22;30950;53.086;21.576;2022-11-15T07:19:45;6.40;99.90
45207;DHT22;30950;53.086;21.576;2022-11-15T07:22:31;6.40;99.90
45207;DHT22;30950;53.086;21.576;2022-11-15T07:25:17;6.40;99.90
45207;DHT22;30950;53.086;21.576;2022-11-15T07:28:03;6.40;99.90
45207;DHT22;30950;53.086;21.576;2022-11-15T07:30:49;6.40;99.90
45207;DHT22;30950;53.086;21.576;2022-11-15T07:33:35;6.40;99.90
45207;DHT22;30950;53.086;21.576;2022-11-15T07:36:22;6.40;99.90
45207;DHT22;30950;53.086;21.576;2022-11-15T07:39:08;6.40;99.90
45207;DHT22;30950;53.086;21.576;2022-11-15T07:41:54;6.40;99.90
45207;DHT22;30950;53.086;21.576;2022-11-15T07:45:00;6.40;99.90
45207;DHT22;30950;53.086;21.576;2022-11-15T07:47:49;6.40;99.90
45207;DHT22;30950;53.086;21.576;2022-11-15T07:50:36;6.40;99.90
45207;DHT22;30950;53.086;21.576;2022-11-15T07:53:22;6.40;99.90
45207;DHT22;30950;53.086;21.576;2022-11-15T07:56:08;6.40;99.90
45207;DHT22;30950;53.086;21.576;2022-11-15T07:58:54;6.40;99.90
45207;DHT22;30950;53.086;21.576;2022-11-15T08:01:39;6.40;99.90
45207;DHT22;30950;53.086;21.576;2022-11-15T08:04:26;6.40;99.90
45207;DHT22;30950;53.086;21.576;2022-11-15T08:07:12;6.40;99.90
45207;DHT22;30950;53.086;21.576;2022-11-15T08:09:58;6.40;99.90
45207;DHT22;30950;53.086;21.576;2022-11-15T08:12:46;6.50;99.90
45207;DHT22;30950;53.086;21.576;2022-11-15T08:15:33;6.50;99.90
45207;DHT22;30950;53.086;21.576;2022-11-15T08:18:19;6.50;99.90
45207;DHT22;30950;53.086;21.576;2022-11-15T08:21:05;6.50;99.90
45207;DHT22;30950;53.086;21.576;2022-11-15T08:23:50;6.50;99.90
45207;DHT22;30950;53.086;21.576;2022-11-15T08:26:38;6.60;99.90
45207;DHT22;30950;53.086;21.576;2022-11-15T08:29:23;6.60;99.90
45207;DHT22;30950;53.086;21.576;2022-11-15T08:32:10;6.60;99.90
45207;DHT22;30950;53.086;21.576;2022-11-15T08:34:56;6.60;99.90
45207;DHT22;30950;53.086;21.576;2022-11-15T08:37:42;6.60;99.90
45207;DHT22;30950;53.086;21.576;2022-11-15T08:40:27;6.60;99.90
45207;DHT22;30950;53.086;21.576;2022-11-15T08:43:13;6.60;99.90
45207;DHT22;30950;53.086;21.576;2022-11-15T08:45:59;6.60;99.90
45207;DHT22;30950;53.086;21.576;2022-11-15T08:48:45;6.60;99.90
45207;DHT22;30950;53.086;21.576;2022-11-15T08:51:31;6.60;99.90
45207;DHT22;30950;53.086;21.576;2022-11-15T08:54:17;6.60;99.90
45207;DHT22;30950;53.086;21.576;2022-11-15T08:57:03;6.60;99.90
45207;DHT22;30950;53.086;21.576;2022-11-15T08:59:49;6.50;99.90
45207;DHT22;30950;53.086;21.576;2022-11-15T09:02:37;6.40;99.90
45207;DHT22;30950;53.086;21.576;2022-11-15T09:05:24;6.40;99.90
45207;DHT22;30950;53.086;21.576;2022-11-15T09:08:10;6.50;99.90
45207;DHT22;30950;53.086;21.576;2022-11-15T09:11:17;6.50;99.90
45207;DHT22;30950;53.086;21.576;2022-11-15T09:14:05;6.50;99.90
45207;DHT22;30950;53.086;21.576;2022-11-15T09:16:52;6.50;99.90
45207;DHT22;30950;53.086;21.576;2022-11-15T09:19:38;6.50;99.90
45207;DHT22;30950;53.086;21.576;2022-11-15T09:22:24;6.50;99.90
45207;DHT22;30950;53.086;21.576;2022-11-15T09:25:10;6.50;99.90
45207;DHT22;30950;53.086;21.576;2022-11-15T09:27:56;6.50;99.90
45207;DHT22;30950;53.086;21.576;2022-11-15T09:30:42;6.50;99.90
45207;DHT22;30950;53.086;21.576;2022-11-15T09:33:28;6.60;99.90
45207;DHT22;30950;53.086;21.576;2022-11-15T09:36:15;6.60;99.90
45207;DHT22;30950;53.086;21.576;2022-11-15T09:39:02;6.60;99.90
45207;DHT22;30950;53.086;21.576;2022-11-15T09:45:20;6.60;99.90
45207;DHT22;30950;53.086;21.576;2022-11-15T09:51:14;6.60;99.90
45207;DHT22;30950;53.086;21.576;2022-11-15T09:56:42;6.50;99.90
45207;DHT22;30950;53.086;21.576;2022-11-15T10:02:23;6.50;99.90
45207;DHT22;30950;53.086;21.576;2022-11-15T10:04:58;6.40;99.90
45207;DHT22;30950;53.086;21.576;2022-11-15T10:07:27;6.50;99.90
45207;DHT22;30950;53.086;21.576;2022-11-15T10:12:35;6.40;99.90
45207;DHT22;30950;53.086;21.576;2022-11-15T10:15:05;6.40;99.90
45207;DHT22;30950;53.086;21.576;2022-11-15T10:20:24;6.40;99.90
45207;DHT22;30950;53.086;21.576;2022-11-15T10:23:13;6.50;99.90
45207;DHT22;30950;53.086;21.576;2022-11-15T10:25:41;6.60;99.90
45207;DHT22;30950;53.086;21.576;2022-11-15T10:28:15;6.60;99.90
45207;DHT22;30950;53.086;21.576;2022-11-15T10:30:52;6.60;99.90
45207;DHT22;30950;53.086;21.576;2022-11-15T10:41:21;6.50;99.90
45207;DHT22;30950;53.086;21.576;2022-11-15T10:44:09;6.50;99.90
45207;DHT22;30950;53.086;21.576;2022-11-15T10:46:40;6.60;99.90
45207;DHT22;30950;53.086;21.576;2022-11-15T10:49:27;6.60;99.90
45207;DHT22;30950;53.086;21.576;2022-11-15T10:54:43;6.50;99.90
45207;DHT22;30950;53.086;21.576;2022-11-15T10:57:14;6.50;99.90
45207;DHT22;30950;53.086;21.576;2022-11-15T10:59:49;6.50;99.90
45207;DHT22;30950;53.086;21.576;2022-11-15T11:02:38;6.50;99.90
45207;DHT22;30950;53.086;21.576;2022-11-15T11:05:32;6.50;99.90
45207;DHT22;30950;53.086;21.576;2022-11-15T11:08:20;6.50;99.90
45207;DHT22;30950;53.086;21.576;2022-11-15T11:10:56;6.50;99.90
45207;DHT22;30950;53.086;21.576;2022-11-15T11:13:31;6.50;99.90
45207;DHT22;30950;53.086;21.576;2022-11-15T11:16:38;6.40;99.90
45207;DHT22;30950;53.086;21.576;2022-11-15T11:19:16;6.50;99.90
45207;DHT22;30950;53.086;21.576;2022-11-15T11:24:39;6.40;99.90
45207;DHT22;30950;53.086;21.576;2022-11-15T11:30:24;6.40;99.90
45207;DHT22;30950;53.086;21.576;2022-11-15T11:33:17;6.40;99.90
45207;DHT22;30950;53.086;21.576;2022-11-15T11:38:53;6.30;99.90
45207;DHT22;30950;53.086;21.576;2022-11-15T11:49:46;6.30;99.90
45207;DHT22;30950;53.086;21.576;2022-11-15T11:55:21;6.40;99.90
45207;DHT22;30950;53.086;21.576;2022-11-15T12:00:59;6.30;99.90
45207;DHT22;30950;53.086;21.576;2022-11-15T12:03:50;6.20;99.90
45207;DHT22;30950;53.086;21.576;2022-11-15T12:09:24;6.20;99.90
45207;DHT22;30950;53.086;21.576;2022-11-15T12:12:06;6.20;99.90
45207;DHT22;30950;53.086;21.576;2022-11-15T12:14:57;6.20;99.90
45207;DHT22;30950;53.086;21.576;2022-11-15T12:17:29;6.20;99.90
45207;DHT22;30950;53.086;21.576;2022-11-15T12:20:02;6.20;99.90
45207;DHT22;30950;53.086;21.576;2022-11-15T12:25:49;6.10;99.90
45207;DHT22;30950;53.086;21.576;2022-11-15T12:31:03;6.10;99.90
45207;DHT22;30950;53.086;21.576;2022-11-15T12:33:45;6.10;99.90
45207;DHT22;30950;53.086;21.576;2022-11-15T12:39:07;6.10;99.90
45207;DHT22;30950;53.086;21.576;2022-11-15T12:41:40;6.20;99.90
45207;DHT22;30950;53.086;21.576;2022-11-15T12:44:58;6.10;99.90
45207;DHT22;30950;53.086;21.576;2022-11-15T12:47:04;6.20;99.90
45207;DHT22;30950;53.086;21.576;2022-11-15T12:49:49;6.20;99.90
45207;DHT22;30950;53.086;21.576;2022-11-15T12:52:17;6.20;99.90
45207;DHT22;30950;53.086;21.576;2022-11-15T12:54:58;6.20;99.90
45207;DHT22;30950;53.086;21.576;2022-11-15T12:57:29;6.20;99.90
45207;DHT22;30950;53.086;21.576;2022-11-15T12:59:59;6.10;99.90
45207;DHT22;30950;53.086;21.576;2022-11-15T13:17:57;6.10;99.90
45207;DHT22;30950;53.086;21.576;2022-11-15T13:20:30;6.10;99.90
45207;DHT22;30950;53.086;21.576;2022-11-15T13:30:52;6.10;99.90
45207;DHT22;30950;53.086;21.576;2022-11-15T13:35:50;6.10;99.90
45207;DHT22;30950;53.086;21.576;2022-11-15T13:40:57;6.20;99.90
45207;DHT22;30950;53.086;21.576;2022-11-15T13:46:05;6.10;99.90
45207;DHT22;30950;53.086;21.576;2022-11-15T13:48:33;6.10;99.90
45207;DHT22;30950;53.086;21.576;2022-11-15T13:51:04;6.00;99.90
45207;DHT22;30950;53.086;21.576;2022-11-15T13:53:33;6.10;99.90
45207;DHT22;30950;53.086;21.576;2022-11-15T13:56:02;6.10;99.90
45207;DHT22;30950;53.086;21.576;2022-11-15T13:58:30;6.10;99.90
45207;DHT22;30950;53.086;21.576;2022-11-15T14:01:03;6.10;99.90
45207;DHT22;30950;53.086;21.576;2022-11-15T14:03:33;6.10;99.90
45207;DHT22;30950;53.086;21.576;2022-11-15T14:06:15;6.00;99.90
45207;DHT22;30950;53.086;21.576;2022-11-15T14:11:26;6.00;99.90
45207;DHT22;30950;53.086;21.576;2022-11-15T14:16:57;6.00;99.90
45207;DHT22;30950;53.086;21.576;2022-11-15T14:24:39;6.00;99.90
45207;DHT22;30950;53.086;21.576;2022-11-15T14:27:26;6.00;99.90
45207;DHT22;30950;53.086;21.576;2022-11-15T14:29:55;6.00;99.90
45207;DHT22;30950;53.086;21.576;2022-11-15T14:32:28;6.00;99.90
45207;DHT22;30950;53.086;21.576;2022-11-15T14:35:00;6.00;99.90
45207;DHT22;30950;53.086;21.576;2022-11-15T14:37:30;5.90;99.90
45207;DHT22;30950;53.086;21.576;2022-11-15T14:40:05;5.90;99.90
45207;DHT22;30950;53.086;21.576;2022-11-15T14:42:33;5.90;99.90
45207;DHT22;30950;53.086;21.576;2022-11-15T14:45:00;5.90;99.90
45207;DHT22;30950;53.086;21.576;2022-11-15T14:47:28;5.90;99.90
45207;DHT22;30950;53.086;21.576;2022-11-15T14:49:55;5.90;99.90
45207;DHT22;30950;53.086;21.576;2022-11-15T14:54:59;5.80;99.90
45207;DHT22;30950;53.086;21.576;2022-11-15T14:57:26;5.80;99.90
45207;DHT22;30950;53.086;21.576;2022-11-15T14:59:55;5.80;99.90
45207;DHT22;30950;53.086;21.576;2022-11-15T15:02:24;5.80;99.90
45207;DHT22;30950;53.086;21.576;2022-11-15T15:04:53;5.80;99.90
45207;DHT22;30950;53.086;21.576;2022-11-15T15:07:21;5.80;99.90
45207;DHT22;30950;53.086;21.576;2022-11-15T15:09:49;5.70;99.90
45207;DHT22;30950;53.086;21.576;2022-11-15T15:12:17;5.70;99.90
45207;DHT22;30950;53.086;21.576;2022-11-15T15:14:46;5.80;99.90
45207;DHT22;30950;53.086;21.576;2022-11-15T15:17:14;5.70;99.90
45207;DHT22;30950;53.086;21.576;2022-11-15T15:19:42;5.70;99.90
45207;DHT22;30950;53.086;21.576;2022-11-15T15:22:14;5.70;99.90
45207;DHT22;30950;53.086;21.576;2022-11-15T15:24:43;5.80;99.90
45207;DHT22;30950;53.086;21.576;2022-11-15T15:27:11;5.70;99.90
45207;DHT22;30950;53.086;21.576;2022-11-15T15:29:39;5.80;99.90
45207;DHT22;30950;53.086;21.576;2022-11-15T15:32:10;5.80;99.90
45207;DHT22;30950;53.086;21.576;2022-11-15T15:34:38;5.80;99.90
45207;DHT22;30950;53.086;21.576;2022-11-15T15:39:36;5.80;99.90
45207;DHT22;30950;53.086;21.576;2022-11-15T15:42:03;5.80;99.90
45207;DHT22;30950;53.086;21.576;2022-11-15T15:44:31;5.80;99.90
45207;DHT22;30950;53.086;21.576;2022-11-15T15:46:58;5.80;99.90
45207;DHT22;30950;53.086;21.576;2022-11-15T15:49:25;5.80;99.90
45207;DHT22;30950;53.086;21.576;2022-11-15T15:51:53;5.90;99.90
45207;DHT22;30950;53.086;21.576;2022-11-15T15:54:21;5.80;99.90
45207;DHT22;30950;53.086;21.576;2022-11-15T15:56:48;5.80;99.90
45207;DHT22;30950;53.086;21.576;2022-11-15T15:59:22;5.80;99.90
45207;DHT22;30950;53.086;21.576;2022-11-15T16:01:49;5.80;99.90
45207;DHT22;30950;53.086;21.576;2022-11-15T16:04:17;5.90;99.90
45207;DHT22;30950;53.086;21.576;2022-11-15T16:06:44;5.90;99.90
45207;DHT22;30950;53.086;21.576;2022-11-15T16:09:16;5.90;99.90
45207;DHT22;30950;53.086;21.576;2022-11-15T16:11:45;5.90;99.90
45207;DHT22;30950;53.086;21.576;2022-11-15T16:14:13;5.90;99.90
45207;DHT22;30950;53.086;21.576;2022-11-15T16:16:40;5.90;99.90
45207;DHT22;30950;53.086;21.576;2022-11-15T16:19:09;6.00;99.90
45207;DHT22;30950;53.086;21.576;2022-11-15T16:21:38;6.00;99.90
45207;DHT22;30950;53.086;21.576;2022-11-15T16:24:05;6.00;99.90
45207;DHT22;30950;53.086;21.576;2022-11-15T16:26:33;6.00;99.90
45207;DHT22;30950;53.086;21.576;2022-11-15T16:29:01;6.00;99.90
45207;DHT22;30950;53.086;21.576;2022-11-15T16:31:29;6.00;99.90
45207;DHT22;30950;53.086;21.576;2022-11-15T16:33:56;6.00;99.90
45207;DHT22;30950;53.086;21.576;2022-11-15T16:36:25;6.00;99.90
45207;DHT22;30950;53.086;21.576;2022-11-15T16:38:57;6.00;99.90
45207;DHT22;30950;53.086;21.576;2022-11-15T16:41:25;6.00;99.90
45207;DHT22;30950;53.086;21.576;2022-11-15T16:43:53;6.00;99.90
45207;DHT22;30950;53.086;21.576;2022-11-15T16:46:25;6.00;99.90
45207;DHT22;30950;53.086;21.576;2022-11-15T16:48:53;6.00;99.90
45207;DHT22;30950;53.086;21.576;2022-11-15T16:51:22;6.10;99.90
45207;DHT22;30950;53.086;21.576;2022-11-15T16:53:49;6.10;99.90
45207;DHT22;30950;53.086;21.576;2022-11-15T16:58:44;6.10;99.90
45207;DHT22;30950;53.086;21.576;2022-11-15T17:01:21;6.10;99.90
45207;DHT22;30950;53.086;21.576;2022-11-15T17:03:49;6.10;99.90
45207;DHT22;30950;53.086;21.576;2022-11-15T17:06:17;6.10;99.90
45207;DHT22;30950;53.086;21.576;2022-11-15T17:08:45;6.10;99.90
45207;DHT22;30950;53.086;21.576;2022-11-15T17:11:21;6.10;99.90
45207;DHT22;30950;53.086;21.576;2022-11-15T17:13:48;6.10;99.90
45207;DHT22;30950;53.086;21.576;2022-11-15T17:16:17;6.10;99.90
45207;DHT22;30950;53.086;21.576;2022-11-15T17:18:49;6.00;99.90
45207;DHT22;30950;53.086;21.576;2022-11-15T17:21:19;6.00;99.90
45207;DHT22;30950;53.086;21.576;2022-11-15T17:23:47;6.00;99.90
45207;DHT22;30950;53.086;21.576;2022-11-15T17:26:15;5.90;99.90
45207;DHT22;30950;53.086;21.576;2022-11-15T17:29:02;5.90;99.90
45207;DHT22;30950;53.086;21.576;2022-11-15T17:31:35;5.90;99.90
45207;DHT22;30950;53.086;21.576;2022-11-15T17:34:03;5.90;99.90
45207;DHT22;30950;53.086;21.576;2022-11-15T17:36:32;5.90;99.90
45207;DHT22;30950;53.086;21.576;2022-11-15T17:38:59;5.90;99.90
45207;DHT22;30950;53.086;21.576;2022-11-15T17:41:27;5.90;99.90
45207;DHT22;30950;53.086;21.576;2022-11-15T17:43:56;5.90;99.90
45207;DHT22;30950;53.086;21.576;2022-11-15T17:46:25;5.90;99.90
45207;DHT22;30950;53.086;21.576;2022-11-15T17:48:54;5.90;99.90
45207;DHT22;30950;53.086;21.576;2022-11-15T17:51:22;5.90;99.90
45207;DHT22;30950;53.086;21.576;2022-11-15T17:53:50;5.90;99.90
45207;DHT22;30950;53.086;21.576;2022-11-15T17:56:19;6.00;99.90
45207;DHT22;30950;53.086;21.576;2022-11-15T17:58:51;6.00;99.90
45207;DHT22;30950;53.086;21.576;2022-11-15T18:01:24;5.90;99.90
45207;DHT22;30950;53.086;21.576;2022-11-15T18:03:52;5.90;99.90
45207;DHT22;30950;53.086;21.576;2022-11-15T18:06:23;5.90;99.90
45207;DHT22;30950;53.086;21.576;2022-11-15T18:08:52;5.90;99.90
45207;DHT22;30950;53.086;21.576;2022-11-15T18:11:25;5.90;99.90
45207;DHT22;30950;53.086;21.576;2022-11-15T18:13:55;5.90;99.90
45207;DHT22;30950;53.086;21.576;2022-11-15T18:16:25;5.80;99.90
45207;DHT22;30950;53.086;21.576;2022-11-15T18:18:54;5.80;99.90
45207;DHT22;30950;53.086;21.576;2022-11-15T18:21:27;5.80;99.90
45207;DHT22;30950;53.086;21.576;2022-11-15T18:24:01;5.80;99.90
45207;DHT22;30950;53.086;21.576;2022-11-15T18:26:29;5.80;99.90
45207;DHT22;30950;53.086;21.576;2022-11-15T18:29:02;5.80;99.90
45207;DHT22;30950;53.086;21.576;2022-11-15T18:31:31;5.80;99.90
45207;DHT22;30950;53.086;21.576;2022-11-15T18:33:59;5.80;99.90
45207;DHT22;30950;53.086;21.576;2022-11-15T18:36:28;5.80;99.90
45207;DHT22;30950;53.086;21.576;2022-11-15T18:39:00;5.80;99.90
45207;DHT22;30950;53.086;21.576;2022-11-15T18:41:30;5.80;99.90
45207;DHT22;30950;53.086;21.576;2022-11-15T18:44:00;5.80;99.90
45207;DHT22;30950;53.086;21.576;2022-11-15T18:46:32;5.90;99.90
45207;DHT22;30950;53.086;21.576;2022-11-15T18:49:00;5.90;99.90
45207;DHT22;30950;53.086;21.576;2022-11-15T18:51:29;5.90;99.90
45207;DHT22;30950;53.086;21.576;2022-11-15T18:53:59;5.80;99.90
45207;DHT22;30950;53.086;21.576;2022-11-15T18:56:29;5.90;99.90
45207;DHT22;30950;53.086;21.576;2022-11-15T18:58:59;5.90;99.90
45207;DHT22;30950;53.086;21.576;2022-11-15T19:01:29;5.90;99.90
45207;DHT22;30950;53.086;21.576;2022-11-15T19:03:57;5.90;99.90
45207;DHT22;30950;53.086;21.576;2022-11-15T19:06:26;5.90;99.90
45207;DHT22;30950;53.086;21.576;2022-11-15T19:08:56;5.80;99.90
45207;DHT22;30950;53.086;21.576;2022-11-15T19:11:29;5.90;99.90
45207;DHT22;30950;53.086;21.576;2022-11-15T19:13:58;5.90;99.90
45207;DHT22;30950;53.086;21.576;2022-11-15T19:16:26;5.90;99.90
45207;DHT22;30950;53.086;21.576;2022-11-15T19:18:55;5.90;99.90
45207;DHT22;30950;53.086;21.576;2022-11-15T19:21:24;5.80;99.90
45207;DHT22;30950;53.086;21.576;2022-11-15T19:23:51;5.80;99.90
45207;DHT22;30950;53.086;21.576;2022-11-15T19:26:21;5.80;99.90
45207;DHT22;30950;53.086;21.576;2022-11-15T19:28:58;5.90;99.90
45207;DHT22;30950;53.086;21.576;2022-11-15T19:31:27;5.90;99.90
45207;DHT22;30950;53.086;21.576;2022-11-15T19:33:56;5.80;99.90